Time;durP1;ratioP1;P1;durP2;ratioP2;P2;SDS_P1;SDS_P2;PMS_P1;PMS_P2;Temp;Humidity;BMP_temperature;BMP_pressure;BME280_temperature;BME280_humidity;BME280_pressure;Samples;Min_cycle;Max_cycle;Signal;HPM_P1;HPM_P2
2020/12/22 00:01:34;;;;;;;38.57;18.63;;;;;;;1.48;75.60;102106.55;127848;1091;104430;-71
2020/12/22 00:04:03;;;;;;;38.93;18.53;;;;;;;1.49;75.50;102104.11;127845;1091;104474;-73
2020/12/22 00:06:32;;;;;;;37.87;17.00;;;;;;;1.49;75.50;102104.11;127782;1091;104554;-72
2020/12/22 00:09:01;;;;;;;36.63;16.40;;;;;;;1.52;75.14;102103.50;127700;1092;104494;-73
2020/12/22 00:11:31;;;;;;;36.50;16.87;;;;;;;1.51;75.36;102096.50;127784;1091;104411;-72
2020/12/22 00:14:00;;;;;;;36.70;16.73;;;;;;;1.47;74.96;102107.33;127783;1092;104471;-73
2020/12/22 00:16:35;;;;;;;35.03;15.77;;;;;;;1.48;75.10;102109.13;127788;1092;104421;-72
2020/12/22 00:19:05;;;;;;;32.17;15.20;;;;;;;1.50;74.76;102110.22;127815;1091;104689;-72
2020/12/22 00:21:34;;;;;;;36.33;16.80;;;;;;;1.51;75.38;102112.95;127793;1091;104512;-72
2020/12/22 00:24:04;;;;;;;28.70;11.93;;;;;;;1.51;75.33;102109.43;127845;1092;104413;-72
2020/12/22 00:26:33;;;;;;;27.40;11.03;;;;;;;1.46;74.71;102102.91;127788;1091;104426;-73
2020/12/22 00:29:02;;;;;;;32.57;14.47;;;;;;;1.41;74.85;102105.04;127838;1091;104439;-73
2020/12/22 00:31:36;;;;;;;31.33;13.57;;;;;;;1.43;75.28;102117.38;127779;1092;104462;-73
2020/12/22 00:34:05;;;;;;;27.03;12.77;;;;;;;1.46;75.23;102108.08;127809;1091;104538;-71
2020/12/22 00:36:34;;;;;;;23.80;10.93;;;;;;;1.48;75.31;102114.30;127796;1092;104459;-74
2020/12/22 00:39:04;;;;;;;26.77;12.27;;;;;;;1.49;75.52;102118.73;127827;1091;104410;-74
2020/12/22 00:41:33;;;;;;;27.40;12.90;;;;;;;1.49;75.25;102101.52;127804;1091;104413;-73
2020/12/22 00:44:02;;;;;;;23.67;10.97;;;;;;;1.52;75.12;102107.00;127814;1092;104475;-73
2020/12/22 00:46:31;;;;;;;27.67;12.60;;;;;;;1.53;75.01;102113.11;127754;1092;104601;-72
2020/12/22 00:49:00;;;;;;;23.53;11.47;;;;;;;1.49;74.85;102108.38;127825;1091;104543;-73
2020/12/22 00:51:29;;;;;;;25.23;11.63;;;;;;;1.43;74.77;102119.96;127777;1091;104420;-73
2020/12/22 00:54:00;;;;;;;23.83;10.73;;;;;;;1.42;74.72;102122.41;127808;1092;104542;-72
2020/12/22 00:56:28;;;;;;;21.87;10.27;;;;;;;1.39;74.89;102117.83;127754;1091;104416;-72
2020/12/22 00:58:58;;;;;;;19.77;8.93;;;;;;;1.38;75.23;102120.26;127811;1091;104430;-72
2020/12/22 01:01:30;;;;;;;23.20;10.37;;;;;;;1.35;74.61;102115.69;127813;1091;104423;-72
2020/12/22 01:03:59;;;;;;;23.90;10.73;;;;;;;1.28;74.72;102122.69;127831;1093;104477;-72
2020/12/22 01:06:35;;;;;;;24.33;10.90;;;;;;;1.21;74.51;102126.35;127811;1091;104413;-74
2020/12/22 01:09:05;;;;;;;27.20;11.07;;;;;;;1.18;74.76;102121.78;127828;1091;104414;-71
2020/12/22 01:11:39;;;;;;;23.77;10.87;;;;;;;1.18;74.85;102124.36;127729;1091;104602;-74
2020/12/22 01:14:07;;;;;;;;;;;;;;;1.16;74.90;102118.14;127884;1092;104429;-72
2020/12/22 01:16:37;;;;;;;23.93;11.27;;;;;;;1.14;75.00;102119.67;127810;1092;104433;-71
2020/12/22 01:19:06;;;;;;;27.10;12.13;;;;;;;1.12;74.91;102117.67;127832;1092;104407;-71
2020/12/22 01:21:35;;;;;;;25.33;11.90;;;;;;;1.07;74.61;102112.95;127806;1091;104442;-72
2020/12/22 01:24:05;;;;;;;24.20;10.23;;;;;;;1.04;74.83;102115.27;127775;1091;104566;-72
2020/12/22 01:26:34;;;;;;;27.80;13.00;;;;;;;0.96;74.86;102118.73;127749;1092;104552;-72
2020/12/22 01:29:03;;;;;;;23.37;11.20;;;;;;;0.94;75.06;102114.19;127808;1092;104474;-72
2020/12/22 01:31:32;;;;;;;26.83;13.03;;;;;;;0.98;75.12;102113.72;127824;1091;104410;-73
2020/12/22 01:34:01;;;;;;;22.40;10.37;;;;;;;1.02;75.21;102114.17;127811;1092;104432;-72
2020/12/22 01:36:32;;;;;;;27.33;12.47;;;;;;;1.00;74.81;102118.29;127749;1091;104480;-73
2020/12/22 01:39:01;;;;;;;27.40;12.23;;;;;;;0.99;74.86;102113.87;127815;1092;104408;-72
2020/12/22 01:41:34;;;;;;;25.70;11.73;;;;;;;1.02;74.73;102108.10;127803;1092;104484;-73
2020/12/22 01:44:05;;;;;;;28.25;12.95;;;;;;;1.02;75.03;102111.59;127773;1092;104538;-73
2020/12/22 01:46:37;;;;;;;27.80;13.70;;;;;;;1.04;74.70;102114.33;127765;1092;104408;-73
2020/12/22 01:49:13;;;;;;;28.57;12.13;;;;;;;1.02;74.76;102115.86;127793;1092;104405;-73
2020/12/22 01:51:43;;;;;;;29.43;13.43;;;;;;;0.91;74.72;102106.12;127807;1091;104481;-73
2020/12/22 01:54:12;;;;;;;30.67;13.87;;;;;;;0.88;74.60;102109.30;127823;1092;104414;-73
2020/12/22 01:56:42;;;;;;;32.40;14.33;;;;;;;0.86;74.91;102116.91;127825;1092;104523;-73
2020/12/22 01:59:11;;;;;;;29.70;12.60;;;;;;;0.82;74.87;102103.52;127789;1091;104583;-72
2020/12/22 02:01:41;;;;;;;33.43;14.77;;;;;;;0.76;74.84;102102.91;127805;1092;104414;-72
2020/12/22 02:04:14;;;;;;;31.97;14.43;;;;;;;0.73;74.63;102100.01;127785;1091;104691;-72
2020/12/22 02:06:43;;;;;;;34.10;15.25;;;;;;;0.72;75.08;102101.70;127818;1091;104544;-74
2020/12/22 02:09:12;;;;;;;33.27;14.53;;;;;;;0.79;75.20;102098.95;127836;1091;104417;-73
2020/12/22 02:11:42;;;;;;;29.60;14.37;;;;;;;0.86;75.30;102095.33;127831;1091;104448;-72
2020/12/22 02:14:12;;;;;;;38.40;15.50;;;;;;;0.90;75.17;102100.02;127798;1092;104423;-73
2020/12/22 02:16:43;;;;;;;37.73;13.77;;;;;;;0.92;75.37;102101.11;127808;1092;104410;-70
2020/12/22 02:19:12;;;;;;;33.47;15.17;;;;;;;0.85;74.62;102098.66;127816;1092;104410;-71
2020/12/22 02:21:41;;;;;;;39.90;16.43;;;;;;;0.83;74.58;102097.61;127849;1092;104429;-71
2020/12/22 02:24:10;;;;;;;35.20;15.40;;;;;;;0.80;74.82;102099.88;127809;1091;105186;-72
2020/12/22 02:26:42;;;;;;;34.53;16.27;;;;;;;0.78;74.84;102097.14;127769;1092;104474;-71
2020/12/22 02:29:12;;;;;;;29.80;12.93;;;;;;;0.77;74.92;102096.98;127823;1093;104433;-72
2020/12/22 02:31:41;;;;;;;29.53;13.33;;;;;;;0.75;74.78;102082.98;127834;1091;104458;-71
2020/12/22 02:34:10;;;;;;;31.87;15.30;;;;;;;0.71;74.85;102090.42;127836;1091;104410;-72
2020/12/22 02:36:40;;;;;;;27.97;13.70;;;;;;;0.69;74.75;102096.22;127815;1092;104416;-72
2020/12/22 02:39:09;;;;;;;30.73;14.50;;;;;;;0.64;74.75;102097.40;127792;1091;104532;-73
2020/12/22 02:41:38;;;;;;;29.80;12.77;;;;;;;0.64;74.67;102099.98;127830;1091;104545;-71
2020/12/22 02:44:07;;;;;;;28.73;11.57;;;;;;;0.62;74.58;102101.51;127794;1093;104737;-72
2020/12/22 02:46:36;;;;;;;27.77;12.53;;;;;;;0.62;74.65;102098.92;127822;1092;104442;-73
2020/12/22 02:49:04;;;;;;;26.73;11.37;;;;;;;0.63;74.67;102104.25;127803;1092;104571;-73
2020/12/22 02:51:34;;;;;;;22.63;10.50;;;;;;;0.60;74.45;102105.63;127683;1091;104551;-74
2020/12/22 02:54:03;;;;;;;23.07;11.30;;;;;;;0.58;74.66;102097.72;128113;1092;102391;-72
2020/12/22 02:56:33;;;;;;;19.23;8.07;;;;;;;0.61;74.43;102110.01;127813;1091;103957;-76
2020/12/22 02:59:02;;;;;;;19.50;9.00;;;;;;;0.54;74.35;102103.31;127770;1091;104477;-72
2020/12/22 03:01:37;;;;;;;22.20;10.23;;;;;;;0.49;74.75;102105.44;127809;1092;104548;-72
2020/12/22 03:04:06;;;;;;;21.23;9.70;;;;;;;0.50;74.65;102101.20;127760;1093;104502;-73
2020/12/22 03:06:35;;;;;;;19.60;8.50;;;;;;;0.51;74.09;102105.59;127804;1092;104485;-73
2020/12/22 03:09:05;;;;;;;23.33;11.03;;;;;;;0.47;74.16;102101.79;127742;1091;104449;-72
2020/12/22 03:11:34;;;;;;;24.97;11.23;;;;;;;0.46;74.32;102099.95;127771;1092;104420;-72
2020/12/22 03:14:04;;;;;;;22.50;10.85;;;;;;;0.43;74.09;102096.16;127729;1091;104414;-74
2020/12/22 03:16:35;;;;;;;24.37;11.67;;;;;;;0.41;74.42;102101.16;127767;1092;104615;-72
2020/12/22 03:19:04;;;;;;;25.13;11.97;;;;;;;0.46;74.68;102093.89;127792;1091;104413;-72
2020/12/22 03:21:33;;;;;;;25.50;12.33;;;;;;;0.51;74.81;102093.61;127823;1091;104414;-72
2020/12/22 03:24:02;;;;;;;23.70;11.30;;;;;;;0.53;74.44;102092.08;127829;1091;104410;-74
2020/12/22 03:26:31;;;;;;;24.07;11.10;;;;;;;0.49;74.38;102095.09;127771;1091;104410;-73
2020/12/22 03:28:59;;;;;;;23.33;11.00;;;;;;;0.50;74.40;102093.45;127686;1092;104442;-72
2020/12/22 03:31:28;;;;;;;22.17;10.53;;;;;;;0.47;74.36;102093.14;127816;1092;104404;-72
2020/12/22 03:33:57;;;;;;;22.67;10.37;;;;;;;0.43;74.45;102093.57;127748;1091;104467;-72
2020/12/22 03:36:26;;;;;;;23.37;10.93;;;;;;;0.41;74.20;102096.00;127761;1091;104417;-72
2020/12/22 03:38:56;;;;;;;23.93;11.77;;;;;;;0.40;74.28;102095.84;127752;1092;104535;-72
2020/12/22 03:41:29;;;;;;;23.23;11.80;;;;;;;0.39;74.37;102094.01;127699;1092;104420;-73
2020/12/22 03:43:58;;;;;;;28.73;13.00;;;;;;;0.40;74.57;102099.33;127741;1091;104477;-74
2020/12/22 03:46:27;;;;;;;26.83;13.20;;;;;;;0.43;74.60;102096.16;127700;1091;104484;-72
2020/12/22 03:48:56;;;;;;;26.03;12.50;;;;;;;0.43;74.63;102093.57;127831;1091;104410;-74
2020/12/22 03:51:25;;;;;;;28.77;14.40;;;;;;;0.40;74.38;102098.42;127751;1092;104435;-73
2020/12/22 03:53:54;;;;;;;25.13;12.67;;;;;;;0.43;74.44;102101.32;127755;1092;104452;-72
2020/12/22 03:56:25;;;;;;;24.17;12.37;;;;;;;0.42;74.55;102097.84;127684;1091;104410;-72
2020/12/22 03:58:54;;;;;;;26.03;13.00;;;;;;;0.47;74.48;102103.47;127774;1091;104455;-72
2020/12/22 04:01:23;;;;;;;22.63;10.60;;;;;;;0.49;74.39;102100.27;127823;1092;104477;-71
2020/12/22 04:03:53;;;;;;;26.70;11.60;;;;;;;0.45;74.45;102100.73;127821;1091;105018;-71
2020/12/22 04:06:21;;;;;;;18.70;8.45;;;;;;;0.41;74.20;102102.84;127777;1091;104464;-72
2020/12/22 04:08:53;;;;;;;20.80;9.93;;;;;;;0.38;74.36;102103.44;127810;1091;104433;-72
2020/12/22 04:11:22;;;;;;;19.20;9.13;;;;;;;0.37;74.35;102095.53;127803;1092;104419;-73
2020/12/22 04:13:51;;;;;;;21.07;8.53;;;;;;;0.40;74.19;102093.27;127790;1091;104429;-70
2020/12/22 04:16:21;;;;;;;17.07;7.47;;;;;;;0.40;74.39;102093.27;127848;1092;104558;-69
2020/12/22 04:18:49;;;;;;;21.60;9.37;;;;;;;0.38;74.45;102098.27;127783;1091;104449;-76
2020/12/22 04:21:18;;;;;;;19.27;8.23;;;;;;;0.38;74.35;102090.52;127780;1091;104435;-73
2020/12/22 04:23:47;;;;;;;20.77;9.33;;;;;;;0.35;74.13;102091.11;127800;1092;104917;-73
2020/12/22 04:26:16;;;;;;;18.67;8.93;;;;;;;0.38;74.32;102092.20;127839;1092;104429;-73
2020/12/22 04:28:45;;;;;;;23.40;10.05;;;;;;;0.41;74.58;102095.09;127796;1091;104576;-73
2020/12/22 04:31:16;;;;;;;22.80;11.03;;;;;;;0.46;74.47;102092.20;127689;1092;104420;-74
2020/12/22 04:33:46;;;;;;;24.40;11.50;;;;;;;0.50;74.47;102091.77;127814;1092;104423;-72
2020/12/22 04:36:14;;;;;;;24.37;10.87;;;;;;;0.49;73.90;102092.52;127777;1092;104430;-72
2020/12/22 04:38:44;;;;;;;24.50;11.30;;;;;;;0.49;74.01;102089.03;127846;1092;104430;-73
2020/12/22 04:41:15;;;;;;;25.17;10.90;;;;;;;0.48;74.23;102090.72;127774;1092;104669;-74
2020/12/22 04:43:45;;;;;;;22.87;11.03;;;;;;;0.49;73.97;102097.68;127787;1092;104381;-74
2020/12/22 04:46:19;;;;;;;24.43;10.77;;;;;;;0.51;74.37;102096.19;127774;1091;104417;-72
2020/12/22 04:48:53;;;;;;;24.80;11.77;;;;;;;0.51;73.64;102097.84;127737;1092;104442;-74
2020/12/22 04:51:23;;;;;;;22.02;10.80;;;;;;;0.46;74.00;102091.30;127753;1092;104413;-72
2020/12/22 04:53:53;;;;;;;21.33;9.07;;;;;;;0.43;74.04;102085.83;127631;1091;104538;-72
2020/12/22 04:56:22;;;;;;;24.23;11.00;;;;;;;0.42;74.40;102086.57;127604;1091;104433;-73
2020/12/22 04:58:51;;;;;;;19.97;9.30;;;;;;;0.42;74.07;102083.98;127771;1092;104500;-72
2020/12/22 05:01:20;;;;;;;22.05;10.10;;;;;;;0.39;74.09;102082.03;127719;1092;104422;-72
2020/12/22 05:03:49;;;;;;;22.43;10.33;;;;;;;0.37;74.04;102086.10;127729;1092;104871;-73
2020/12/22 05:06:18;;;;;;;26.53;10.70;;;;;;;0.39;74.25;102089.78;127818;1091;104608;-72
2020/12/22 05:08:47;;;;;;;18.20;8.40;;;;;;;0.39;73.84;102094.01;127769;1091;104475;-73
2020/12/22 05:11:17;;;;;;;21.50;8.77;;;;;;;0.38;73.85;102094.78;127808;1091;104523;-74
2020/12/22 05:13:48;;;;;;;20.60;9.10;;;;;;;0.35;73.73;102090.21;127730;1091;104429;-72
2020/12/22 05:16:25;;;;;;;20.67;9.33;;;;;;;0.34;73.85;102096.12;127766;1091;104564;-72
2020/12/22 05:18:56;;;;;;;20.10;8.93;;;;;;;0.35;73.92;102095.38;127717;1091;104407;-73
2020/12/22 05:21:24;;;;;;;23.00;9.77;;;;;;;0.33;74.00;102090.05;127587;1091;104423;-73
2020/12/22 05:23:54;;;;;;;22.30;9.10;;;;;;;0.33;73.78;102087.47;127715;1091;104535;-74
2020/12/22 05:26:23;;;;;;;22.37;9.03;;;;;;;0.32;73.82;102093.38;127728;1091;104433;-74
2020/12/22 05:28:52;;;;;;;23.83;10.53;;;;;;;0.30;73.92;102092.32;127641;1091;104407;-74
2020/12/22 05:31:21;;;;;;;22.63;9.93;;;;;;;0.25;73.65;102088.37;127675;1092;104490;-72
2020/12/22 05:33:50;;;;;;;22.27;9.27;;;;;;;0.22;73.69;102090.63;127661;1092;104520;-76
2020/12/22 05:36:21;;;;;;;22.67;8.33;;;;;;;0.22;73.59;102090.63;127671;1091;104442;-72
2020/12/22 05:38:52;;;;;;;22.93;8.80;;;;;;;0.18;73.48;102083.31;127518;1092;104407;-72
2020/12/22 05:41:21;;;;;;;22.67;9.73;;;;;;;0.16;73.34;102085.73;127403;1092;104504;-72
2020/12/22 05:43:52;;;;;;;23.80;9.60;;;;;;;0.18;73.35;102088.48;127492;1092;104481;-73
2020/12/22 05:46:21;;;;;;;22.77;9.70;;;;;;;0.17;73.68;102081.48;127450;1092;104436;-72
2020/12/22 05:48:51;;;;;;;24.20;10.10;;;;;;;0.19;73.68;102082.58;127461;1092;104480;-73
2020/12/22 05:51:21;;;;;;;23.00;9.30;;;;;;;0.23;73.73;102076.95;127439;1091;104459;-75
2020/12/22 05:53:51;;;;;;;24.10;9.67;;;;;;;0.26;73.64;102085.00;127452;1092;104434;-71
2020/12/22 05:56:23;;;;;;;23.10;10.00;;;;;;;0.22;73.15;102080.30;127651;1092;104459;-71
2020/12/22 05:58:52;;;;;;;22.63;10.20;;;;;;;0.16;73.22;102083.16;127551;1091;104449;-71
2020/12/22 06:01:31;;;;;;;26.10;11.17;;;;;;;0.15;73.46;102083.00;127522;1091;104522;-72
2020/12/22 06:04:02;;;;;;;23.13;9.80;;;;;;;0.19;73.74;102085.16;128907;1092;102460;-72
2020/12/22 06:06:32;;;;;;;22.63;9.70;;;;;;;0.21;73.75;102086.22;128936;1092;102417;-72
2020/12/22 06:09:02;;;;;;;22.07;9.77;;;;;;;0.17;73.14;102089.22;128883;1092;103082;-73
2020/12/22 06:11:37;;;;;;;23.07;9.80;;;;;;;0.17;73.30;102086.64;128875;1091;102304;-72
2020/12/22 06:14:09;;;;;;;27.30;9.93;;;;;;;0.23;72.99;102084.69;127614;1092;104430;-73
2020/12/22 06:16:38;;;;;;;22.27;9.57;;;;;;;0.29;73.22;102087.00;127542;1093;104527;-73
2020/12/22 06:19:08;;;;;;;24.60;9.33;;;;;;;0.31;72.91;102086.41;127508;1092;104439;-73
2020/12/22 06:21:38;;;;;;;24.37;10.27;;;;;;;0.37;73.33;102082.62;127713;1091;104472;-72
2020/12/22 06:24:07;;;;;;;23.10;9.60;;;;;;;0.38;73.23;102089.62;127625;1092;104548;-73
2020/12/22 06:26:37;;;;;;;27.63;11.40;;;;;;;0.40;72.98;102088.09;127491;1091;104407;-77
2020/12/22 06:29:24;;;;;;;28.10;11.93;;;;;;;0.42;73.13;102081.41;127465;1091;104981;-76
2020/12/22 06:31:54;;;;;;;25.77;10.90;;;;;;;0.45;73.86;102084.30;127345;1092;104484;-74
2020/12/22 06:34:26;;;;;;;24.47;11.53;;;;;;;0.48;73.22;102084.61;127476;1093;104714;-76
2020/12/22 06:37:01;;;;;;;24.37;10.03;;;;;;;0.49;73.01;102078.70;127429;1091;104471;-73
2020/12/22 06:39:44;;;;;;;25.33;9.93;;;;;;;0.52;73.09;102081.59;127373;1091;104432;-74
2020/12/22 06:42:44;;;;;;;25.03;9.73;;;;;;;0.50;72.97;102086.61;127470;1092;104435;-74
2020/12/22 06:45:28;;;;;;;22.57;9.07;;;;;;;0.50;72.37;102085.70;127269;1091;104461;-77
2020/12/22 06:47:59;;;;;;;21.70;9.67;;;;;;;0.45;72.54;102081.72;128580;1092;102814;-77
2020/12/22 06:50:41;;;;;;;26.73;10.60;;;;;;;0.47;72.83;102077.64;127246;1092;104567;-77
2020/12/22 06:53:33;;;;;;;21.60;10.00;;;;;;;0.51;72.80;102082.34;128887;1092;102392;-76
2020/12/22 06:56:03;;;;;;;25.77;10.77;;;;;;;0.59;73.16;102086.60;127230;1093;104442;-77
2020/12/22 06:58:44;;;;;;;23.27;9.73;;;;;;;0.59;72.78;102081.44;127413;1091;104554;-75
2020/12/22 07:01:39;;;;;;;24.80;9.20;;;;;;;0.62;72.33;102092.08;127273;1091;104560;-76
2020/12/22 07:04:17;;;;;;;27.40;10.30;;;;;;;0.61;72.53;102077.36;127375;1091;104599;-76
2020/12/22 07:06:50;;;;;;;21.97;9.93;;;;;;;0.63;72.56;102083.58;127398;1092;104416;-76
2020/12/22 07:09:21;;;;;;;22.67;9.57;;;;;;;0.65;72.57;102082.05;127468;1092;104436;-74
2020/12/22 07:11:52;;;;;;;24.83;8.80;;;;;;;0.67;72.67;102085.73;127434;1091;104545;-76
2020/12/22 07:14:24;;;;;;;23.83;10.40;;;;;;;0.67;72.60;102080.56;127466;1091;104561;-75
2020/12/22 07:16:59;;;;;;;22.30;9.47;;;;;;;0.68;72.61;102073.70;128103;1092;104500;-74
2020/12/22 07:19:29;;;;;;;19.67;8.20;;;;;;;0.67;72.30;102088.31;127658;1091;104420;-74
2020/12/22 07:22:01;;;;;;;24.77;10.33;;;;;;;0.66;72.35;102085.58;127421;1091;104407;-77
2020/12/22 07:24:31;;;;;;;26.53;10.87;;;;;;;0.69;72.65;102086.78;127345;1092;104442;-76
2020/12/22 07:27:00;;;;;;;25.27;10.90;;;;;;;0.74;72.33;102082.08;127315;1093;104583;-76
2020/12/22 07:29:29;;;;;;;26.93;11.23;;;;;;;0.76;71.88;102075.38;127396;1091;104410;-77
2020/12/22 07:32:00;;;;;;;27.00;9.53;;;;;;;0.78;72.45;102076.47;127392;1092;104502;-76
2020/12/22 07:34:31;;;;;;;23.83;10.27;;;;;;;0.75;72.10;102076.16;127842;1091;104554;-76
2020/12/22 07:37:06;;;;;;;25.17;10.67;;;;;;;0.74;72.35;102073.42;127208;1092;104446;-75
2020/12/22 07:39:37;;;;;;;24.30;9.03;;;;;;;0.74;72.06;102079.49;127708;1091;105630;-73
2020/12/22 07:42:11;;;;;;;25.90;11.67;;;;;;;0.74;72.30;102084.66;127710;1091;104430;-74
2020/12/22 07:44:43;;;;;;;27.87;11.43;;;;;;;0.81;72.52;102084.53;127483;1093;104442;-77
2020/12/22 07:47:13;;;;;;;29.43;11.77;;;;;;;0.90;72.17;102087.10;127550;1091;104442;-76
2020/12/22 07:49:44;;;;;;;25.90;10.97;;;;;;;0.94;72.17;102081.48;127467;1092;104997;-76
2020/12/22 07:52:18;;;;;;;24.53;9.90;;;;;;;0.96;71.97;102077.37;127546;1091;104573;-76
2020/12/22 07:54:59;;;;;;;27.47;11.73;;;;;;;0.96;72.28;102076.47;127646;1091;104478;-78
2020/12/22 07:57:30;;;;;;;30.07;12.23;;;;;;;1.00;71.69;102079.52;127500;1092;104449;-78
2020/12/22 08:00:06;;;;;;;29.20;12.43;;;;;;;0.97;72.27;102066.28;127399;1092;104411;-77
2020/12/22 08:02:36;;;;;;;28.77;11.73;;;;;;;1.02;72.33;102066.74;127531;1092;104496;-74
2020/12/22 08:05:15;;;;;;;26.17;11.03;;;;;;;1.01;71.59;102065.84;127659;1092;104549;-74
2020/12/22 08:07:52;;;;;;;29.43;12.37;;;;;;;1.00;71.84;102069.17;127313;1091;104672;-73
2020/12/22 08:10:23;;;;;;;28.43;11.00;;;;;;;0.98;71.44;102062.95;127422;1091;104617;-75
2020/12/22 08:12:54;;;;;;;27.67;11.17;;;;;;;0.95;71.07;102053.95;127620;1092;104866;-79
2020/12/22 08:15:23;;;;;;;30.00;13.67;;;;;;;0.97;71.90;102057.63;127525;1092;104481;-76
2020/12/22 08:17:56;;;;;;;28.40;11.23;;;;;;;1.01;71.52;102059.73;127470;1092;104414;-74
2020/12/22 08:20:28;;;;;;;29.80;13.40;;;;;;;0.96;71.22;102060.96;127246;1091;104481;-74
2020/12/22 08:22:58;;;;;;;25.90;11.70;;;;;;;0.98;71.53;102054.27;127410;1092;104522;-71
2020/12/22 08:25:28;;;;;;;23.60;10.13;;;;;;;0.96;71.32;102056.69;127473;1092;104411;-74
2020/12/22 08:27:57;;;;;;;26.17;12.27;;;;;;;0.90;71.63;102056.08;127484;1092;104452;-75
2020/12/22 08:30:32;;;;;;;32.00;13.20;;;;;;;0.92;71.45;102057.17;127321;1091;104438;-77
2020/12/22 08:33:07;;;;;;;26.93;10.97;;;;;;;0.95;71.72;102061.71;127557;1092;104582;-77
2020/12/22 08:35:39;;;;;;;28.77;11.40;;;;;;;0.95;71.17;102056.55;127227;1091;104557;-79
2020/12/22 08:38:21;;;;;;;29.83;12.13;;;;;;;0.96;71.44;102058.38;127201;1091;104493;-76
2020/12/22 08:40:54;;;;;;;29.20;12.57;;;;;;;1.04;71.93;102050.63;127424;1091;104417;-75
2020/12/22 08:43:25;;;;;;;28.77;11.83;;;;;;;1.11;71.73;102049.55;127645;1092;104458;-77
2020/12/22 08:45:55;;;;;;;29.83;11.80;;;;;;;1.18;71.70;102053.64;127578;1091;104410;-76
2020/12/22 08:48:38;;;;;;;27.87;12.90;;;;;;;1.18;71.35;102046.78;127342;1091;104557;-76
2020/12/22 08:51:07;;;;;;;27.33;11.60;;;;;;;1.19;71.28;102034.80;127533;1091;105021;-75
2020/12/22 08:53:53;;;;;;;26.60;11.90;;;;;;;1.21;71.60;102026.40;127481;1092;104464;-76
2020/12/22 08:56:26;;;;;;;28.90;12.23;;;;;;;1.25;71.47;102025.95;127308;1092;104583;-77
2020/12/22 08:58:57;;;;;;;28.47;12.30;;;;;;;1.33;71.31;102016.34;127433;1091;104589;-75
2020/12/22 09:01:29;;;;;;;30.53;12.63;;;;;;;1.43;71.74;102013.91;127436;1092;104557;-74
2020/12/22 09:04:01;;;;;;;28.77;12.40;;;;;;;1.52;71.71;102005.19;127651;1091;104496;-77
2020/12/22 09:06:35;;;;;;;29.57;12.77;;;;;;;1.59;71.57;101994.65;127611;1092;104548;-75
2020/12/22 09:09:10;;;;;;;35.10;14.40;;;;;;;1.66;71.33;101993.58;127513;1091;104658;-76
2020/12/22 09:11:40;;;;;;;23.97;10.70;;;;;;;1.62;70.80;101987.17;127563;1091;104852;-76
2020/12/22 09:14:11;;;;;;;26.93;11.63;;;;;;;1.56;71.11;101986.63;127502;1092;104666;-73
2020/12/22 09:16:51;;;;;;;31.57;11.90;;;;;;;1.55;70.66;101987.38;127599;1092;104545;-76
2020/12/22 09:19:22;;;;;;;26.87;12.27;;;;;;;1.53;71.14;101983.75;127560;1091;104440;-77
2020/12/22 09:22:00;;;;;;;29.80;13.13;;;;;;;1.56;71.21;101977.17;127450;1091;104519;-76
2020/12/22 09:24:31;;;;;;;28.93;12.70;;;;;;;1.61;70.99;101972.44;127599;1092;104549;-75
2020/12/22 09:27:03;;;;;;;30.10;12.50;;;;;;;1.61;71.21;101972.44;127483;1092;104410;-78
2020/12/22 09:29:35;;;;;;;28.73;12.80;;;;;;;1.63;71.00;101970.90;127473;1091;104429;-81
2020/12/22 09:32:06;;;;;;;28.33;12.17;;;;;;;1.66;71.36;101976.36;127385;1091;104442;-77
2020/12/22 09:34:39;;;;;;;33.53;12.97;;;;;;;1.69;70.99;101962.81;127561;1092;104475;-77
2020/12/22 09:37:10;;;;;;;24.23;9.77;;;;;;;1.71;70.95;101957.00;127513;1091;104408;-77
2020/12/22 09:39:40;;;;;;;28.50;12.30;;;;;;;1.69;71.06;101965.41;127370;1091;104436;-80
2020/12/22 09:42:09;;;;;;;27.07;12.53;;;;;;;1.66;70.60;101953.08;127553;1093;104416;-78
2020/12/22 09:44:38;;;;;;;20.90;8.20;;;;;;;1.65;70.41;101952.93;127379;1092;104884;-79
2020/12/22 09:47:07;;;;;;;23.43;10.77;;;;;;;1.55;70.11;101949.47;127366;1092;105121;-78
2020/12/22 09:49:37;;;;;;;25.60;10.97;;;;;;;1.51;70.68;101949.97;127326;1091;104685;-76
2020/12/22 09:52:12;;;;;;;29.47;11.90;;;;;;;1.58;70.94;101943.69;127276;1093;104433;-79
2020/12/22 09:54:44;;;;;;;25.23;11.00;;;;;;;1.61;70.08;101947.46;127413;1091;104484;-77
2020/12/22 09:57:13;;;;;;;22.00;9.57;;;;;;;1.61;70.39;101938.80;127464;1091;104426;-80
2020/12/22 09:59:42;;;;;;;22.40;10.07;;;;;;;1.66;70.65;101936.65;127426;1092;104916;-76
2020/12/22 10:02:11;;;;;;;27.17;11.27;;;;;;;1.68;70.32;101943.77;127466;1092;104490;-80
2020/12/22 10:04:51;;;;;;;24.43;10.67;;;;;;;1.70;70.37;101931.91;127455;1092;104500;-78
2020/12/22 10:07:24;;;;;;;22.70;10.07;;;;;;;1.75;69.93;101928.06;127596;1092;104407;-76
2020/12/22 10:09:55;;;;;;;22.17;9.63;;;;;;;1.78;70.76;101928.35;127522;1091;104410;-78
2020/12/22 10:12:28;;;;;;;23.63;9.40;;;;;;;1.76;70.54;101928.96;127447;1091;104448;-76
2020/12/22 10:14:59;;;;;;;19.57;7.07;;;;;;;1.76;70.17;101918.61;127721;1092;104507;-76
2020/12/22 10:17:31;;;;;;;24.00;10.20;;;;;;;1.70;70.18;101913.80;127679;1092;104438;-76
2020/12/22 10:20:08;;;;;;;23.25;10.28;;;;;;;1.69;70.05;101911.06;127188;1091;104522;-76
2020/12/22 10:22:46;;;;;;;23.23;9.50;;;;;;;1.70;70.37;101913.80;128940;1092;102458;-80
2020/12/22 10:25:16;;;;;;;22.10;9.33;;;;;;;1.78;70.18;101911.92;127402;1091;104582;-76
2020/12/22 10:27:46;;;;;;;22.67;9.50;;;;;;;1.82;70.48;101908.83;127274;1091;104480;-79
2020/12/22 10:30:15;;;;;;;21.73;9.10;;;;;;;1.88;70.58;101904.23;127262;1092;105199;-78
2020/12/22 10:32:45;;;;;;;21.67;9.47;;;;;;;1.91;69.67;101903.62;127387;1092;104433;-77
2020/12/22 10:35:15;;;;;;;22.10;9.40;;;;;;;1.88;69.96;101903.33;127450;1091;104472;-79
2020/12/22 10:37:44;;;;;;;23.13;9.37;;;;;;;1.91;70.44;101886.39;127263;1092;104603;-74
2020/12/22 10:40:13;;;;;;;18.60;7.67;;;;;;;1.94;70.06;101884.09;127245;1092;104533;-77
2020/12/22 10:42:42;;;;;;;21.10;8.83;;;;;;;1.96;70.45;101881.64;127391;1092;104413;-79
2020/12/22 10:45:14;;;;;;;22.17;8.53;;;;;;;1.98;70.31;101885.30;127719;1091;104439;-79
2020/12/22 10:47:45;;;;;;;20.23;8.10;;;;;;;1.98;69.93;101887.89;127429;1092;104496;-77
2020/12/22 10:50:14;;;;;;;21.10;8.50;;;;;;;1.95;69.81;101877.25;127547;1092;104449;-78
2020/12/22 10:52:43;;;;;;;24.63;7.83;;;;;;;1.96;69.89;101892.00;127397;1092;104433;-78
2020/12/22 10:55:12;;;;;;;16.13;6.47;;;;;;;1.99;69.79;101887.10;127386;1092;104443;-75
2020/12/22 10:57:42;;;;;;;18.23;7.23;;;;;;;1.98;70.32;101886.20;127244;1093;104491;-80
2020/12/22 11:00:15;;;;;;;18.63;7.30;;;;;;;1.98;69.81;101885.30;128830;1092;102419;-79
2020/12/22 11:02:46;;;;;;;18.13;6.90;;;;;;;2.02;69.85;101877.03;127948;1092;104538;-75
2020/12/22 11:05:15;;;;;;;15.83;6.13;;;;;;;2.04;69.94;101880.69;128829;1092;102517;-77
2020/12/22 11:07:48;;;;;;;15.50;6.40;;;;;;;2.03;69.36;101872.78;128702;1092;102684;-79
2020/12/22 11:10:18;;;;;;;17.62;6.97;;;;;;;2.06;69.84;101873.97;127116;1092;104475;-76
2020/12/22 11:12:47;;;;;;;15.77;6.20;;;;;;;2.07;69.35;101869.69;127241;1093;104429;-77
2020/12/22 11:15:16;;;;;;;20.10;7.73;;;;;;;2.03;69.65;101860.73;127146;1092;104571;-79
2020/12/22 11:17:46;;;;;;;19.33;7.33;;;;;;;2.07;69.51;101847.31;127061;1092;104478;-75
2020/12/22 11:20:15;;;;;;;19.90;7.70;;;;;;;2.12;69.60;101850.28;127184;1091;104449;-77
2020/12/22 11:22:45;;;;;;;22.50;8.47;;;;;;;2.11;69.13;101846.80;127094;1092;105046;-77